Flight Track Log - Related Links

Times and Time Zones

All times are in EDT time to prevent confusion due to time zone crossing. See the LXJ549 flight status page for this flight to view local times or setup timezone preferences in your user account.

Time Position Orientation Groundspeed Altitude Reporting Facility
EDT Latitude Longitude Course Direction KTS MPH feet Rate Location/Type
Tue 07:21:59 PM 39.9333 -105.1500 270° West 198 228 7,500  Level Denver TRACON
Tue 07:22:59 PM 40.0000 -105.1667 349° North 249 287 10,800 3,450 Climbing Denver TRACON
Tue 07:23:59 PM 40.0667 -105.2167 330° Northwest 295 339 14,400 2,550 Climbing Denver TRACON
Tue 07:24:59 PM 40.0167 -105.3167 237° Southwest 348 400 15,900 750 Climbing Denver TRACON
Tue 07:25:59 PM 39.9667 -105.4167 237° Southwest 336 387 15,900 46 Level Denver TRACON
Tue 07:27:00 PM 39.6833 -105.6609 270° West  Level FlightAware Approximate
Tue 07:27:10 PM 39.9467 -105.5600 260° West 334 384 16,000  Level Denver Center
Tue 07:28:12 PM 39.9183 -105.6736 252° West 343 395 15,900 -48 Descending Denver Center
Tue 07:29:14 PM 39.8764 -105.7775 242° Southwest 326 375 15,900 48 Level Denver Center
Tue 07:30:16 PM 39.8314 -105.8914 243° Southwest 325 374 16,000  Climbing Denver Center
Tue 07:31:18 PM 39.7872 -106.0050 243° Southwest 346 398 15,900  Descending Denver Center
Tue 07:32:20 PM 39.7650 -106.1139 255° West 331 381 16,000  Climbing Denver Center
Tue 07:33:22 PM 39.7544 -106.2169 262° West 324 373 15,900 -97 Descending Denver Center
Tue 07:34:24 PM 39.7381 -106.3308 259° West 323 372 15,800 -48 Descending Denver Center
Tue 07:35:26 PM 39.7478 -106.4756 275° West 331 381 15,800 48 Level Denver Center
Tue 07:36:28 PM 39.7347 -106.5833 261° West 322 371 15,900 48 Climbing Denver Center
Tue 07:37:31 PM 39.6536 -106.6761 221° Southwest 358 412 15,900  Level Denver Center
Tue 07:38:33 PM 39.5761 -106.7556 218° Southwest 369 425 15,900  Level Denver Center
Tue 07:39:35 PM 39.4839 -106.8475 218° Southwest 374 430 15,900 -968 Level Denver Center
Tue 07:40:37 PM 39.4111 -106.9264 220° Southwest 359 413 13,900 -2,129 Descending Denver Center
Tue 07:41:39 PM 39.3408 -106.9675 204° Southwest 331 381 11,500 -2,177 Descending Denver Center
Tue 07:42:41 PM 39.3025 -106.8997 126° Southeast 268 308 9,400 -2,032 Descending Denver Center
Tue 07:44:00 PM 39.2167 -106.8667 176° South  Level FlightAware Approximate

Login

Don't have an account? Register now (free) for customized features, flight alerts, and more!